NCAR-RAP Real-Time Weather Data

Output produced by METARs form (10 April 2020  06:24 UTC)
found at http://weather.rap.ucar.edu/surface/
 
KMBG 100552Z AUTO 20003KT 10SM CLR M03/M08 A3011 RMK AO2 SLP217 T10331078 10056 21039 400611039 56015
KMBG 100452Z AUTO 14006KT 10SM CLR M02/M07 A3011 RMK AO2 SLP219 T10221067
KMBG 100352Z AUTO 12004KT 10SM CLR M02/M08 A3014 RMK AO2 SLP227 T10171083
KMBG 100252Z AUTO 14004KT 10SM CLR M03/M09 A3016 RMK AO2 SLP235 T10331094 56004
KMBG 100152Z AUTO 10SM CLR M04/M10 A3016 RMK AO2 SLP237 T10391100
KMBG 100052Z AUTO 00000KT 10SM CLR 04/M12 A3016 RMK AO2 SLP230 T00441117
KMBG 092352Z AUTO 01005KT 10SM CLR 06/M11 A3017 RMK AO2 SLP233 T00561111 10061 20011 56011
KMBG 092252Z AUTO 01004KT 10SM CLR 06/M11 A3018 RMK AO2 SLP236 T00561111
KMBG 092152Z AUTO 36009G16KT 10SM CLR 05/M11 A3019 RMK AO2 SLP240 T00501106
KMBG 092052Z AUTO 35010G17KT 10SM CLR 04/M11 A3020 RMK AO2 SLP245 T00441106 58003
KMBG 091952Z AUTO 36012G22KT 10SM CLR 03/M11 A3021 RMK AO2 PK WND 36027/1909 SLP249 T00331106
KMBG 091852Z AUTO 36019G27KT 10SM CLR 03/M11 A3022 RMK AO2 PK WND 34031/1803 SLP251 T00281111
KMBG 091752Z AUTO 34021G33KT 10SM FEW045 01/M12 A3021 RMK AO2 PK WND 34034/1707 SLP249 60000 T00111117 10017 21022 51017
KMBG 091652Z AUTO 33021G33KT 10SM SCT046 01/M12 A3021 RMK AO2 PK WND 34035/1605 SLP248 T00111122
KMBG 091552Z AUTO 34021G33KT 10SM CLR M01/M14 A3019 RMK AO2 PK WND 34036/1519 SLP244 T10061139
KMBG 091452Z AUTO 34026G38KT 10SM CLR M02/M14 A3016 RMK AO2 PK WND 34044/1431 SLP232 60000 T10171139 53032
KMBG 091352Z AUTO 34029G43KT 10SM FEW055 M02/M12 A3013 RMK AO2 PK WND 32043/1330 SNE1253 SLP220 P0000 T10221117
KMBG 091252Z AUTO 33022G33KT 9SM -SN SCT035 SCT043 OVC060 M01/M08 A3009 RMK AO2 PK WND 32034/1215 SNB31 SLP203 P0000 T10061083
KMBG 091152Z AUTO 32018G26KT 10SM SCT055 M01/M08 A3006 RMK AO2 PK WND 32027/1103 SLP193 T10111083 10006 21017 53017
KMBG 091052Z AUTO 32016G26KT 10SM CLR M01/M08 A3004 RMK AO2 PK WND 32026/1049 SLP185 T10061083
KMBG 090952Z AUTO 31013KT 10SM BKN060 M01/M08 A3003 RMK AO2 SLP181 T10061078
KMBG 090852Z AUTO 29010KT 10SM CLR 00/M08 A3001 RMK AO2 SLP173 T00001078 53001
KMBG 090752Z AUTO 29007KT 10SM BKN080 M01/M08 A3000 RMK AO2 SLP171 T10111078